Time;durP1;ratioP1;P1;durP2;ratioP2;P2;SDS_P1;SDS_P2;PMS_P1;PMS_P2;Temp;Humidity;BMP_temperature;BMP_pressure;BME280_temperature;BME280_humidity;BME280_pressure;Samples;Min_cycle;Max_cycle;Signal;HPM_P1;HPM_P2
2022/05/11 00:01:21;;;;;;;15.85;5.45;;;;;;;12.72;100.00;101236.09;5061116;28;20051;-30
2022/05/11 00:03:49;;;;;;;17.13;5.53;;;;;;;12.73;100.00;101233.00;5061784;28;20143;-30
2022/05/11 00:06:17;;;;;;;16.25;5.53;;;;;;;12.74;100.00;101231.84;5059107;28;20051;-29
2022/05/11 00:08:44;;;;;;;16.48;5.50;;;;;;;12.76;100.00;101240.78;5062884;28;20049;-31
2022/05/11 00:11:12;;;;;;;18.52;6.50;;;;;;;12.74;100.00;101226.25;5063756;28;20040;-29
2022/05/11 00:13:40;;;;;;;17.02;5.45;;;;;;;12.76;100.00;101228.75;5060633;28;20143;-29
2022/05/11 00:16:09;;;;;;;12.05;4.30;;;;;;;12.77;100.00;101228.44;5064914;28;20055;-29
2022/05/11 00:18:37;;;;;;;14.20;5.15;;;;;;;12.76;100.00;101226.78;5060331;28;20127;-30
2022/05/11 00:21:04;;;;;;;15.20;4.72;;;;;;;12.79;100.00;101228.13;5064746;28;20040;-28
2022/05/11 00:23:32;;;;;;;22.23;5.43;;;;;;;12.77;100.00;101225.66;5061230;28;20174;-28
2022/05/11 00:26:00;;;;;;;14.68;4.68;;;;;;;12.81;100.00;101214.63;5057666;28;20048;-29
2022/05/11 00:28:28;;;;;;;15.57;5.10;;;;;;;12.83;100.00;101212.38;5060591;28;20049;-30
2022/05/11 00:30:56;;;;;;;19.85;5.38;;;;;;;12.84;100.00;101210.41;5064023;28;20049;-32
2022/05/11 00:33:25;;;;;;;14.20;4.75;;;;;;;12.84;100.00;101210.41;5061154;28;20044;-30
2022/05/11 00:35:53;;;;;;;15.77;5.05;;;;;;;12.83;100.00;101208.72;5047415;28;20040;-30
2022/05/11 00:38:23;;;;;;;15.20;4.97;;;;;;;12.83;100.00;101211.53;5059351;28;20040;-31
2022/05/11 00:40:53;;;;;;;13.48;4.53;;;;;;;12.82;100.00;101204.28;5058566;28;20055;-29
2022/05/11 00:43:29;;;;;;;13.50;4.22;;;;;;;12.82;100.00;101209.88;5059049;28;20056;-27
2022/05/11 00:46:13;;;;;;;16.35;4.65;;;;;;;12.79;100.00;101207.72;5058400;28;20055;-28
2022/05/11 00:51:35;;;;;;;12.48;4.32;;;;;;;12.75;100.00;101194.31;5048414;28;20082;-28
2022/05/11 00:54:05;;;;;;;15.45;4.43;;;;;;;12.76;100.00;101195.97;5060819;28;20049;-30
2022/05/11 00:56:36;;;;;;;20.00;5.80;;;;;;;12.76;100.00;101187.56;5058697;28;20062;-28
2022/05/11 00:59:09;;;;;;;14.88;5.47;;;;;;;12.76;100.00;101181.97;5059217;28;20045;-28
2022/05/11 01:01:38;;;;;;;13.65;4.30;;;;;;;12.76;100.00;101181.13;5058550;28;20040;-28
2022/05/11 01:04:09;;;;;;;17.15;4.63;;;;;;;12.75;100.00;101177.50;5047467;28;20487;-31
2022/05/11 01:06:38;;;;;;;10.38;4.22;;;;;;;12.75;100.00;101185.91;5058096;28;20041;-32
2022/05/11 01:09:06;;;;;;;16.08;5.13;;;;;;;12.77;100.00;101188.41;5047216;28;20414;-31
2022/05/11 01:11:38;;;;;;;15.82;4.25;;;;;;;12.79;100.00;101182.50;5058460;28;20045;-31
2022/05/11 01:14:07;;;;;;;;;;;;;;;12.72;100.00;101180.91;5059839;28;20487;-29
2022/05/11 01:16:36;;;;;;;16.42;4.35;;;;;;;12.71;100.00;101178.41;5058578;28;20273;-27
2022/05/11 01:19:07;;;;;;;12.30;3.97;;;;;;;12.74;100.00;101181.44;5058715;28;20051;-27
2022/05/11 01:21:43;;;;;;;13.20;4.25;;;;;;;12.79;100.00;101182.50;5058026;28;20045;-29
2022/05/11 01:24:32;;;;;;;18.75;5.07;;;;;;;12.81;100.00;101171.78;5058480;28;20049;-29
2022/05/11 01:27:27;;;;;;;15.93;4.47;;;;;;;12.79;100.00;101174.91;5060507;28;20053;-29
2022/05/11 01:29:56;;;;;;;13.52;4.78;;;;;;;12.77;100.00;101163.22;5067162;28;20041;-28
2022/05/11 01:32:25;;;;;;;12.88;4.00;;;;;;;12.80;100.00;101164.53;5067294;28;20045;-28
2022/05/11 01:35:02;;;;;;;16.08;4.30;;;;;;;12.81;100.00;101163.41;5065376;28;20090;-29
2022/05/11 01:37:31;;;;;;;19.58;4.95;;;;;;;12.81;100.00;101155.81;5063766;28;20140;-29
2022/05/11 01:39:59;;;;;;;12.20;4.00;;;;;;;12.82;100.00;101148.25;5066080;28;20048;-29
2022/05/11 01:42:28;;;;;;;11.13;4.50;;;;;;;12.83;100.00;101156.34;5060913;28;20036;-29
2022/05/11 01:44:56;;;;;;;13.32;4.25;;;;;;;12.82;100.00;101154.69;5062056;28;20411;-30
2022/05/11 01:47:23;;;;;;;15.38;4.80;;;;;;;12.81;100.00;101157.78;5061802;28;20049;-29
2022/05/11 01:49:51;;;;;;;12.18;3.80;;;;;;;12.79;100.00;101155.31;5061220;28;20052;-28
2022/05/11 01:52:19;;;;;;;13.60;4.15;;;;;;;12.76;100.00;101159.56;5062489;28;20133;-29
2022/05/11 01:54:47;;;;;;;16.25;4.72;;;;;;;12.74;100.00;101163.81;5061827;28;20115;-30
2022/05/11 01:57:15;;;;;;;19.05;5.25;;;;;;;12.70;100.00;101160.78;5063587;28;20055;-29
2022/05/11 01:59:44;;;;;;;18.63;5.88;;;;;;;12.68;100.00;101151.84;5061090;28;20053;-29
2022/05/11 02:02:11;;;;;;;16.10;4.88;;;;;;;12.65;100.00;101160.03;5055333;28;20502;-30
2022/05/11 02:10:10;;;;;;;9.57;4.38;;;;;;;12.52;100.00;101158.84;5060709;28;20068;-30
2022/05/11 02:12:38;;;;;;;19.30;5.72;;;;;;;12.50;100.00;101154.69;5064576;28;20060;-29
2022/05/11 02:15:09;;;;;;;19.20;5.32;;;;;;;12.50;100.00;101154.69;5061092;28;20053;-29
2022/05/11 02:17:37;;;;;;;17.83;5.40;;;;;;;12.48;100.00;101143.81;5064021;28;20051;-29
2022/05/11 02:20:06;;;;;;;21.58;5.60;;;;;;;12.47;100.00;101146.91;5051381;28;20057;-34
2022/05/11 02:22:34;;;;;;;16.15;5.35;;;;;;;12.46;100.00;101148.88;5060695;28;20102;-31
2022/05/11 02:25:02;;;;;;;22.48;5.93;;;;;;;12.48;100.00;101155.00;5065805;28;20052;-31
2022/05/11 02:27:31;;;;;;;19.52;6.28;;;;;;;12.49;100.00;101151.06;5070318;28;20242;-31
2022/05/11 02:29:59;;;;;;;16.58;5.72;;;;;;;12.49;100.00;101145.47;5060663;28;20114;-28
2022/05/11 02:32:28;;;;;;;21.05;6.22;;;;;;;12.49;100.00;101151.06;5063545;28;20044;-28
2022/05/11 02:35:15;;;;;;;21.38;5.82;;;;;;;12.51;100.00;101151.59;5060203;28;20044;-29
2022/05/11 02:37:46;;;;;;;21.15;6.72;;;;;;;12.52;100.00;101152.44;5063478;28;20087;-29
2022/05/11 02:40:16;;;;;;;19.02;6.47;;;;;;;12.51;100.00;101154.41;5060614;28;20461;-31
2022/05/11 02:42:44;;;;;;;26.20;6.10;;;;;;;12.53;100.00;101137.28;5063955;28;20053;-30
2022/05/11 02:45:14;;;;;;;22.88;6.22;;;;;;;12.53;100.00;101135.34;5059420;28;20426;-29
2022/05/11 02:47:44;;;;;;;14.38;4.88;;;;;;;12.54;100.00;101139.78;5062141;28;20037;-29
2022/05/11 02:50:19;;;;;;;19.90;5.65;;;;;;;12.54;100.00;101137.00;5060757;28;20045;-28
2022/05/11 02:52:47;;;;;;;19.92;6.28;;;;;;;12.54;100.00;101134.19;5050267;28;20056;-28
2022/05/11 02:55:15;;;;;;;21.85;6.18;;;;;;;12.55;100.00;101126.63;5060792;28;20055;-28
2022/05/11 02:57:43;;;;;;;19.85;6.32;;;;;;;12.55;100.00;101127.47;5061511;28;20048;-28
2022/05/11 03:00:14;;;;;;;20.90;5.55;;;;;;;12.57;100.00;101111.19;5063431;28;20044;-28
2022/05/11 03:02:43;;;;;;;16.92;5.10;;;;;;;12.55;100.00;101110.66;5061827;28;20044;-30
2022/05/11 03:05:12;;;;;;;15.68;5.38;;;;;;;12.55;100.00;101113.47;5060284;28;20049;-30
2022/05/11 03:07:40;;;;;;;17.60;5.05;;;;;;;12.54;100.00;101114.59;5059280;28;20051;-29
2022/05/11 03:10:10;;;;;;;14.80;4.75;;;;;;;12.54;100.00;101117.41;5060308;28;20052;-29
2022/05/11 03:12:40;;;;;;;13.48;4.80;;;;;;;12.52;100.00;101116.03;5059604;28;20040;-34
2022/05/11 03:15:10;;;;;;;18.40;5.15;;;;;;;12.53;100.00;101115.72;5060029;28;20045;-29
2022/05/11 03:17:38;;;;;;;16.38;4.63;;;;;;;12.55;100.00;101104.22;5063501;28;20405;-29
2022/05/11 03:20:10;;;;;;;12.88;4.40;;;;;;;12.57;100.00;101110.34;5062792;28;20123;-28
2022/05/11 03:22:39;;;;;;;15.70;4.38;;;;;;;12.57;100.00;101102.78;5065974;28;20052;-29
2022/05/11 03:25:08;;;;;;;10.52;4.20;;;;;;;12.57;100.00;101102.78;5057285;28;20041;-29
2022/05/11 03:27:37;;;;;;;20.27;5.93;;;;;;;12.55;100.00;101093.03;5062992;28;20464;-29
2022/05/11 03:30:06;;;;;;;17.20;4.85;;;;;;;12.58;100.00;101090.47;5061831;28;20055;-32
2022/05/11 03:35:21;;;;;;;20.73;4.90;;;;;;;12.56;100.00;101098.34;5059151;28;20041;-28
2022/05/11 03:37:49;;;;;;;17.13;4.60;;;;;;;12.56;100.00;101103.09;5063855;28;20067;-30
2022/05/11 03:40:16;;;;;;;21.15;4.88;;;;;;;12.57;100.00;101090.75;5060776;28;20053;-32
2022/05/11 03:42:44;;;;;;;22.80;5.30;;;;;;;12.57;100.00;101093.56;5063624;28;20036;-29
2022/05/11 03:45:14;;;;;;;13.23;4.50;;;;;;;12.57;100.00;101102.78;5060206;28;20048;-28
2022/05/11 03:47:42;;;;;;;16.55;4.03;;;;;;;12.58;100.00;101092.44;5064633;28;20040;-29
2022/05/11 03:50:10;;;;;;;18.48;4.80;;;;;;;12.57;100.00;101091.59;5060160;28;20045;-29
2022/05/11 03:52:39;;;;;;;14.75;3.67;;;;;;;12.59;100.00;101080.91;5064880;28;20040;-29
2022/05/11 03:55:10;;;;;;;17.60;4.18;;;;;;;12.59;100.00;101083.69;5060693;28;20034;-28
2022/05/11 03:57:39;;;;;;;13.82;3.50;;;;;;;12.58;100.00;101081.22;5048166;28;20048;-28
2022/05/11 04:00:09;;;;;;;15.75;4.20;;;;;;;12.61;100.00;101080.59;5060703;28;20405;-28
2022/05/11 04:02:40;;;;;;;12.52;3.22;;;;;;;12.61;100.00;101086.19;5044758;28;20135;-28
2022/05/11 04:05:10;;;;;;;17.20;3.90;;;;;;;12.61;100.00;101081.41;5048558;28;20044;-28
2022/05/11 04:07:40;;;;;;;16.02;3.53;;;;;;;12.62;100.00;101088.69;5059419;28;20095;-28
2022/05/11 04:10:10;;;;;;;14.50;3.63;;;;;;;12.60;100.00;101068.56;5059364;28;20049;-28
2022/05/11 04:12:38;;;;;;;12.48;3.30;;;;;;;12.62;100.00;101068.25;5059201;28;20052;-28
2022/05/11 04:15:07;;;;;;;15.25;3.75;;;;;;;12.61;100.00;101069.38;5060712;28;20044;-30
2022/05/11 04:17:35;;;;;;;13.15;3.25;;;;;;;12.61;100.00;101067.41;5057859;28;20493;-28
2022/05/11 04:20:04;;;;;;;14.13;3.47;;;;;;;12.61;100.00;101052.59;5073571;28;20065;-29
2022/05/11 04:22:32;;;;;;;16.58;3.25;;;;;;;12.62;100.00;101052.28;5062250;28;20044;-30
2022/05/11 04:25:01;;;;;;;13.82;3.03;;;;;;;12.61;100.00;101047.81;5057880;28;20060;-31
2022/05/11 04:27:30;;;;;;;13.98;3.20;;;;;;;12.61;100.00;101042.22;5063553;28;20056;-28
2022/05/11 04:29:58;;;;;;;10.20;2.50;;;;;;;12.63;100.00;101055.91;5063961;28;20501;-29
2022/05/11 04:32:25;;;;;;;12.75;2.78;;;;;;;12.61;100.00;101053.41;5061096;28;20052;-28
2022/05/11 04:34:53;;;;;;;11.10;2.50;;;;;;;12.63;100.00;101051.16;5063825;28;20063;-29
2022/05/11 04:37:21;;;;;;;18.73;3.28;;;;;;;12.64;100.00;101055.63;5059402;28;20052;-28
2022/05/11 04:39:49;;;;;;;14.25;3.08;;;;;;;12.60;100.00;101068.56;5064416;28;20532;-28
2022/05/11 04:42:18;;;;;;;13.30;2.50;;;;;;;12.62;100.00;101069.09;5060454;28;20524;-31
2022/05/11 04:44:45;;;;;;;13.43;2.83;;;;;;;12.60;100.00;101074.16;5063523;28;20051;-29
2022/05/11 04:47:16;;;;;;;16.45;2.88;;;;;;;12.63;100.00;101069.91;5060609;28;20145;-29
2022/05/11 04:49:44;;;;;;;14.68;2.60;;;;;;;12.62;100.00;101057.06;5064670;28;20045;-28
2022/05/11 04:52:15;;;;;;;14.85;3.53;;;;;;;12.63;100.00;101056.75;5059277;28;20041;-28
2022/05/11 04:54:44;;;;;;;14.48;2.65;;;;;;;12.64;100.00;101055.63;5064206;28;20045;-28
2022/05/11 04:57:13;;;;;;;13.85;3.05;;;;;;;12.65;100.00;101048.88;5061357;28;20033;-29
2022/05/11 04:59:42;;;;;;;16.77;2.42;;;;;;;12.67;100.00;101051.38;5050168;28;20059;-28
2022/05/11 05:02:15;;;;;;;16.00;3.22;;;;;;;12.70;100.00;101059.16;5079557;28;20399;-30
2022/05/11 05:04:43;;;;;;;14.10;2.72;;;;;;;12.68;100.00;101056.66;5054283;28;20052;-28
2022/05/11 05:07:11;;;;;;;13.05;2.58;;;;;;;12.69;100.00;101058.31;5049412;28;20051;-28
2022/05/11 05:09:39;;;;;;;11.40;2.47;;;;;;;12.71;100.00;101063.63;5061299;28;20048;-31
2022/05/11 05:12:08;;;;;;;19.42;3.47;;;;;;;12.67;100.00;101079.38;5062537;28;20473;-30
2022/05/11 05:14:36;;;;;;;13.55;2.65;;;;;;;12.68;100.00;101076.25;5066926;28;20047;-28
2022/05/11 05:17:07;;;;;;;15.75;2.90;;;;;;;12.68;100.00;101070.66;5054908;28;20146;-31
2022/05/11 05:19:37;;;;;;;16.65;3.47;;;;;;;12.67;100.00;101074.59;5065112;28;20060;-28
2022/05/11 05:22:05;;;;;;;13.45;2.67;;;;;;;12.71;100.00;101081.25;5064276;28;20462;-29
2022/05/11 05:24:34;;;;;;;12.18;3.03;;;;;;;12.71;100.00;101078.44;5063905;28;20041;-28
2022/05/11 05:27:02;;;;;;;16.85;3.13;;;;;;;12.74;100.00;101074.22;5067124;28;20178;-28
2022/05/11 05:32:17;;;;;;;14.82;3.55;;;;;;;12.79;100.00;101067.69;5065796;28;20052;-30
2022/05/11 05:34:45;;;;;;;16.52;3.00;;;;;;;12.76;100.00;101072.75;5065983;28;20045;-30
2022/05/11 05:37:14;;;;;;;17.02;3.10;;;;;;;12.75;100.00;101071.09;5065839;28;20052;-29
2022/05/11 05:39:41;;;;;;;19.67;2.85;;;;;;;12.76;100.00;101069.13;5062473;28;20501;-29
2022/05/11 05:42:16;;;;;;;18.05;3.10;;;;;;;12.79;100.00;101067.69;5064872;28;20049;-29
2022/05/11 05:44:44;;;;;;;19.30;3.03;;;;;;;12.76;100.00;101055.97;5057130;28;20102;-30
2022/05/11 05:47:13;;;;;;;20.98;3.55;;;;;;;12.79;100.00;101043.28;5067457;28;20048;-29
2022/05/11 05:49:42;;;;;;;14.00;3.13;;;;;;;12.81;100.00;101059.78;5062689;28;20044;-29
2022/05/11 05:52:16;;;;;;;13.30;2.63;;;;;;;12.85;100.00;101064.47;5067479;28;20135;-29
2022/05/11 05:54:45;;;;;;;16.38;2.90;;;;;;;12.86;100.00;101076.50;5062988;28;20048;-28
2022/05/11 05:57:13;;;;;;;18.38;3.00;;;;;;;12.87;100.00;101076.19;5067798;28;20044;-28
2022/05/11 05:59:41;;;;;;;17.05;2.97;;;;;;;12.88;100.00;101074.22;5063277;28;20044;-28
2022/05/11 06:02:13;;;;;;;17.02;2.80;;;;;;;12.89;100.00;101087.09;5066734;28;20048;-29
2022/05/11 06:04:43;;;;;;;18.65;3.40;;;;;;;12.85;100.00;101066.44;5063422;28;20416;-30
2022/05/11 06:07:12;;;;;;;14.05;2.75;;;;;;;12.89;100.00;101075.88;5067372;28;20398;-29
2022/05/11 06:09:40;;;;;;;22.98;3.83;;;;;;;12.93;100.00;101085.31;5061927;28;20045;-29
2022/05/11 06:12:09;;;;;;;17.90;3.45;;;;;;;12.91;100.00;101079.22;5067035;28;20406;-28
2022/05/11 06:14:37;;;;;;;19.27;3.30;;;;;;;12.95;100.00;101069.03;5065123;28;20036;-30
2022/05/11 06:17:12;;;;;;;17.38;3.20;;;;;;;12.96;100.00;101071.53;5065919;28;20048;-29
2022/05/11 06:19:41;;;;;;;16.70;2.70;;;;;;;13.00;100.00;101061.34;5066010;28;20052;-29
2022/05/11 06:22:09;;;;;;;15.93;3.22;;;;;;;13.01;100.00;101073.38;5066399;28;20502;-30
2022/05/11 06:24:37;;;;;;;21.92;3.63;;;;;;;12.96;100.00;101070.72;5066618;28;20033;-30
2022/05/11 06:27:06;;;;;;;14.52;3.00;;;;;;;12.95;100.00;101061.47;5060812;28;20044;-29
2022/05/11 06:29:34;;;;;;;15.32;2.90;;;;;;;13.02;100.00;101075.06;5062195;28;20047;-29
2022/05/11 06:32:01;;;;;;;19.48;3.30;;;;;;;13.07;100.00;101074.97;5060827;28;20052;-30
2022/05/11 06:34:29;;;;;;;21.98;3.58;;;;;;;13.12;100.00;101063.66;5066024;28;20036;-32
2022/05/11 06:36:58;;;;;;;22.92;3.60;;;;;;;13.15;100.00;101067.81;5065122;28;20797;-29
2022/05/11 06:39:26;;;;;;;18.50;3.63;;;;;;;13.15;100.00;101067.81;5066047;28;20060;-33
2022/05/11 06:41:53;;;;;;;17.27;3.25;;;;;;;13.11;100.00;101059.19;5064987;28;20040;-29
2022/05/11 06:44:21;;;;;;;19.80;3.70;;;;;;;13.13;100.00;101054.09;5065829;28;20115;-29
2022/05/11 06:46:50;;;;;;;18.85;3.22;;;;;;;13.13;100.00;101048.50;5055879;28;20055;-29
2022/05/11 06:49:19;;;;;;;18.33;3.08;;;;;;;13.15;100.00;101065.00;5066395;28;20044;-31
2022/05/11 06:51:47;;;;;;;20.55;3.60;;;;;;;13.17;100.00;101066.41;5061627;28;20083;-30
2022/05/11 06:59:46;;;;;;;18.98;2.88;;;;;;;13.38;100.00;101052.78;5065789;28;20055;-30
2022/05/11 07:02:14;;;;;;;24.55;3.53;;;;;;;13.58;100.00;101057.94;5062117;28;20052;-30
2022/05/11 07:04:42;;;;;;;21.13;4.05;;;;;;;13.72;100.00;101058.72;5065991;28;20044;-31
2022/05/11 07:07:10;;;;;;;21.63;3.47;;;;;;;13.88;100.00;101064.81;5062297;28;20048;-30
2022/05/11 07:09:40;;;;;;;19.67;3.42;;;;;;;13.91;100.00;101066.16;5065910;28;20044;-30
2022/05/11 07:12:18;;;;;;;19.83;3.50;;;;;;;13.94;100.00;101063.56;5061425;28;20036;-29
2022/05/11 07:14:47;;;;;;;24.15;3.90;;;;;;;13.94;100.00;101068.34;5065895;28;20064;-30
2022/05/11 07:17:24;;;;;;;20.90;4.03;;;;;;;13.94;100.00;101062.72;5062291;28;20040;-29
2022/05/11 07:19:52;;;;;;;20.48;3.78;;;;;;;13.91;100.00;101069.78;5064431;28;20053;-30
2022/05/11 07:22:20;;;;;;;23.80;3.40;;;;;;;13.90;100.00;101067.31;5062084;28;20045;-30
2022/05/11 07:24:49;;;;;;;19.35;3.47;;;;;;;13.93;100.00;101063.88;5066522;28;20472;-29
2022/05/11 07:27:18;;;;;;;19.45;3.63;;;;;;;13.89;100.00;101063.66;5070335;28;20063;-29
2022/05/11 07:29:45;;;;;;;20.67;3.50;;;;;;;13.91;100.00;101063.34;5059697;28;20037;-30
2022/05/11 07:32:13;;;;;;;21.98;4.15;;;;;;;13.94;100.00;101059.91;5061570;28;20049;-31
2022/05/11 07:34:41;;;;;;;20.92;4.05;;;;;;;13.95;100.00;101067.19;5059182;28;20037;-30
2022/05/11 07:37:08;;;;;;;18.67;3.75;;;;;;;13.90;100.00;101050.47;5059846;28;20052;-30
2022/05/11 07:39:36;;;;;;;18.65;3.20;;;;;;;14.01;100.00;101051.88;5059503;28;20591;-30
2022/05/11 07:42:06;;;;;;;21.65;4.03;;;;;;;14.11;100.00;101057.25;5061019;28;20052;-29
2022/05/11 07:44:34;;;;;;;17.13;3.85;;;;;;;14.11;100.00;101046.84;5065356;28;20045;-30
2022/05/11 07:47:03;;;;;;;23.42;3.90;;;;;;;14.13;100.00;101047.38;5063168;28;20055;-30
2022/05/11 07:49:31;;;;;;;19.73;3.47;;;;;;;14.17;100.00;101066.38;5064877;28;20048;-29
2022/05/11 07:51:58;;;;;;;21.60;3.25;;;;;;;14.13;100.00;101055.78;5064731;28;20064;-29
2022/05/11 07:54:26;;;;;;;18.13;3.58;;;;;;;14.16;100.00;101053.50;5063849;28;20485;-29
2022/05/11 07:59:59;;;;;;;24.88;4.03;;;;;;;14.38;100.00;101061.91;5064775;28;20051;-31
2022/05/11 08:02:29;;;;;;;19.90;4.32;;;;;;;14.40;100.00;101063.25;5057758;28;20040;-30
2022/05/11 08:04:59;;;;;;;24.27;3.40;;;;;;;14.38;100.00;101067.53;5059269;28;20083;-30
2022/05/11 08:07:29;;;;;;;20.05;3.67;;;;;;;14.40;100.00;101065.19;5059534;28;20410;-30
2022/05/11 08:09:58;;;;;;;20.10;3.83;;;;;;;14.36;100.00;101058.59;5058791;28;20057;-30
2022/05/11 08:12:26;;;;;;;24.27;3.80;;;;;;;14.41;100.00;101067.72;5061986;28;20052;-36
2022/05/11 08:14:56;;;;;;;25.85;4.15;;;;;;;14.56;100.00;101069.34;5062477;28;20383;-31
2022/05/11 08:17:30;;;;;;;27.77;4.00;;;;;;;14.67;100.00;101064.25;5064004;28;20054;-30
2022/05/11 08:19:59;;;;;;;20.58;3.83;;;;;;;14.70;100.00;101066.44;5061443;28;20056;-30
2022/05/11 08:22:27;;;;;;;26.65;4.32;;;;;;;14.67;100.00;101059.47;5064109;28;20107;-31
2022/05/11 08:24:56;;;;;;;23.65;4.53;;;;;;;14.71;100.00;101052.06;5056523;28;20056;-30
2022/05/11 08:27:26;;;;;;;24.63;3.90;;;;;;;14.89;100.00;101058.59;5060579;28;20060;-30
2022/05/11 08:35:58;;;;;;;18.85;4.03;;;;;;;15.29;100.00;101047.34;5061744;28;20048;-30
2022/05/11 08:38:28;;;;;;;19.42;3.50;;;;;;;15.29;100.00;101059.41;5063698;28;20048;-34
2022/05/11 08:41:00;;;;;;;19.95;3.83;;;;;;;15.20;100.00;101063.34;5063597;28;20063;-31
2022/05/11 08:43:31;;;;;;;17.95;3.22;;;;;;;15.18;100.00;101066.50;5061015;28;20056;-30
2022/05/11 08:46:11;;;;;;;16.55;3.33;;;;;;;15.12;100.00;101062.16;5073982;28;20056;-30
2022/05/11 08:48:47;;;;;;;13.55;3.15;;;;;;;15.05;100.00;101070.22;5061931;28;20052;-30
2022/05/11 08:51:25;;;;;;;19.88;3.78;;;;;;;14.99;100.00;101077.97;5062723;28;20078;-30
2022/05/11 08:54:07;;;;;;;16.75;3.05;;;;;;;14.93;100.00;101058.78;5062466;28;20045;-30
2022/05/11 08:56:35;;;;;;;19.38;3.45;;;;;;;15.16;100.00;101072.44;5064037;28;20143;-30
2022/05/11 08:59:05;;;;;;;21.20;3.85;;;;;;;15.52;100.00;101060.97;5063208;28;20052;-31
2022/05/11 09:01:45;;;;;;;23.13;3.30;;;;;;;15.90;100.00;101068.00;5062897;28;20071;-30
2022/05/11 09:04:18;;;;;;;18.65;3.83;;;;;;;16.10;100.00;101076.63;5062055;28;20044;-34
2022/05/11 09:06:46;;;;;;;14.73;3.15;;;;;;;16.00;100.00;101068.47;5062968;28;20493;-31
2022/05/11 09:09:15;;;;;;;21.83;3.35;;;;;;;15.85;100.00;101075.44;5063983;28;20048;-31
2022/05/11 09:11:49;;;;;;;22.02;3.78;;;;;;;15.87;100.00;101071.47;5060433;28;20402;-30
2022/05/11 09:14:23;;;;;;;21.75;4.63;;;;;;;15.82;100.00;101078.06;5064329;28;20055;-30
2022/05/11 09:16:54;;;;;;;19.05;3.72;;;;;;;15.88;100.00;101073.97;5055072;28;20040;-30
2022/05/11 09:19:24;;;;;;;19.40;3.78;;;;;;;15.82;100.00;101078.06;5063574;28;20076;-29
2022/05/11 09:21:55;;;;;;;23.83;3.95;;;;;;;15.57;100.00;101062.00;5060372;28;20041;-29
2022/05/11 09:24:31;;;;;;;22.65;3.78;;;;;;;15.55;100.00;101065.13;5064316;28;20102;-29
2022/05/11 09:27:09;;;;;;;17.98;3.85;;;;;;;15.65;100.00;101067.63;5050213;28;20048;-31
2022/05/11 09:29:40;;;;;;;18.90;3.33;;;;;;;15.71;100.00;101073.94;5064223;28;20060;-33
2022/05/11 09:32:26;;;;;;;18.90;3.88;;;;;;;15.77;100.00;101075.44;5059905;28;20071;-30
2022/05/11 09:34:54;;;;;;;15.70;3.10;;;;;;;15.74;100.00;101087.34;5064009;28;20041;-31
2022/05/11 09:37:29;;;;;;;17.40;2.95;;;;;;;15.93;100.00;101081.41;5060217;28;20049;-29
2022/05/11 09:40:09;;;;;;;19.35;4.00;;;;;;;16.20;100.00;101093.16;5063466;28;20052;-30
2022/05/11 09:42:50;;;;;;;21.00;3.75;;;;;;;16.40;100.00;101079.56;5060099;28;20493;-29
2022/05/11 09:45:38;;;;;;;23.08;3.83;;;;;;;16.59;100.00;101080.03;5067988;28;20056;-35
2022/05/11 09:48:16;;;;;;;17.75;3.17;;;;;;;16.48;100.00;101082.38;5060833;28;20052;-29
2022/05/11 09:50:45;;;;;;;15.48;3.33;;;;;;;16.70;100.00;101081.38;5064853;28;20040;-30
2022/05/11 09:53:24;;;;;;;22.35;4.35;;;;;;;16.78;100.00;101074.91;5065461;28;20049;-29
2022/05/11 09:55:53;;;;;;;16.42;3.08;;;;;;;16.77;100.00;101084.53;5059299;28;20088;-30
2022/05/11 09:58:30;;;;;;;14.10;3.45;;;;;;;16.78;100.00;101074.91;5063633;28;20513;-35
2022/05/11 10:01:11;;;;;;;22.00;3.63;;;;;;;16.70;100.00;101089.84;5060667;28;20053;-33
2022/05/11 10:03:45;;;;;;;17.50;4.03;;;;;;;16.65;100.00;101090.00;5062711;28;20398;-37
2022/05/11 10:06:21;;;;;;;22.67;3.90;;;;;;;16.81;100.00;101090.28;5065258;28;20445;-30
2022/05/11 10:08:52;;;;;;;20.70;4.18;;;;;;;16.97;100.00;101087.78;5065249;28;20048;-32
2022/05/11 10:11:23;;;;;;;16.00;3.20;;;;;;;16.86;100.00;101085.31;5066837;28;20412;-36
2022/05/11 10:13:57;;;;;;;14.55;2.92;;;;;;;16.93;100.00;101076.34;5064427;28;20049;-34
2022/05/11 10:22:25;;;;;;;17.27;3.20;;;;;;;17.30;100.00;101091.63;5061684;28;20055;-35
2022/05/11 10:25:12;;;;;;;23.38;4.75;;;;;;;17.43;100.00;101086.91;5068571;28;20445;-34
2022/05/11 10:27:45;;;;;;;13.85;3.05;;;;;;;17.50;100.00;101082.38;5063607;28;20508;-38
2022/05/11 10:30:23;;;;;;;15.45;3.42;;;;;;;17.51;99.58;101086.03;5062156;28;20482;-34
2022/05/11 10:33:16;;;;;;;19.20;3.72;;;;;;;17.30;98.61;101080.34;5065344;28;20049;-33
2022/05/11 10:35:54;;;;;;;18.80;3.42;;;;;;;17.21;100.00;101088.00;5064732;28;20048;-30
2022/05/11 10:38:38;;;;;;;17.83;3.10;;;;;;;17.11;100.00;101052.56;5052489;28;20053;-30
2022/05/11 10:41:19;;;;;;;19.25;3.90;;;;;;;16.79;100.00;101075.72;5050055;28;20413;-30
2022/05/11 10:43:58;;;;;;;14.73;3.22;;;;;;;16.79;100.00;101072.88;5064018;28;20044;-29
2022/05/11 10:46:34;;;;;;;20.95;3.90;;;;;;;16.70;100.00;101092.66;5051159;28;20059;-30
2022/05/11 10:49:35;;;;;;;16.70;3.72;;;;;;;16.59;100.00;101087.66;5064143;28;20048;-36
2022/05/11 10:52:20;;;;;;;15.77;3.25;;;;;;;16.43;100.00;101084.53;5034368;28;20057;-32
2022/05/11 10:54:58;;;;;;;18.20;3.65;;;;;;;16.42;100.00;101078.06;5062799;28;20040;-30
2022/05/11 10:57:39;;;;;;;19.58;4.05;;;;;;;16.68;100.00;101080.88;5065605;28;20041;-30
2022/05/11 11:00:09;;;;;;;16.35;3.17;;;;;;;16.68;100.00;101083.72;5062722;28;20083;-33
2022/05/11 11:03:21;;;;;;;13.43;3.22;;;;;;;16.76;100.00;101084.88;5066418;28;20131;-36
2022/05/11 11:08:59;;;;;;;17.30;3.55;;;;;;;17.03;100.00;101081.59;5061070;28;20055;-30
2022/05/11 11:11:35;;;;;;;17.10;3.63;;;;;;;17.11;100.00;101091.22;5065218;28;20041;-30
2022/05/11 11:14:06;;;;;;;19.45;4.10;;;;;;;17.36;100.00;101089.44;5061150;28;20052;-29
2022/05/11 11:16:55;;;;;;;15.40;3.22;;;;;;;17.64;98.94;101092.59;5062806;28;20044;-32
2022/05/11 11:19:24;;;;;;;15.82;3.20;;;;;;;17.43;96.56;101096.19;5063516;28;20436;-31
2022/05/11 11:21:52;;;;;;;17.70;3.85;;;;;;;17.23;98.16;101082.84;5065902;28;20405;-30
2022/05/11 11:24:24;;;;;;;14.55;3.00;;;;;;;17.13;97.65;101083.25;5060851;28;20513;-35
2022/05/11 11:26:56;;;;;;;15.90;3.53;;;;;;;17.15;98.79;101087.38;5063761;28;20052;-35
2022/05/11 11:29:32;;;;;;;19.60;3.35;;;;;;;17.20;98.31;101072.25;5064800;28;20051;-36
2022/05/11 11:32:09;;;;;;;12.85;2.97;;;;;;;17.40;98.48;101090.41;5064459;28;20048;-29
2022/05/11 11:34:39;;;;;;;15.88;3.50;;;;;;;17.43;97.52;101092.53;5060585;28;20040;-29
2022/05/11 11:37:42;;;;;;;14.80;3.60;;;;;;;17.48;95.55;101090.38;5059600;28;20494;-32
2022/05/11 11:40:30;;;;;;;20.88;4.05;;;;;;;17.47;95.50;101077.41;5059476;28;20171;-29
2022/05/11 11:42:58;;;;;;;13.82;2.90;;;;;;;17.63;96.08;101062.72;5063622;28;20049;-35
2022/05/11 11:46:06;;;;;;;14.98;2.80;;;;;;;18.04;95.25;101068.44;5064983;28;20171;-30
2022/05/11 11:48:38;;;;;;;16.02;3.17;;;;;;;17.97;92.46;101073.81;5050274;28;20060;-38
2022/05/11 11:51:13;;;;;;;14.93;2.85;;;;;;;18.06;92.96;101071.72;5062871;28;20108;-32
2022/05/11 11:53:56;;;;;;;14.35;2.80;;;;;;;18.22;91.95;101058.63;5057968;28;20391;-33
2022/05/11 11:56:46;;;;;;;15.45;2.78;;;;;;;18.22;90.43;101069.94;5063029;28;20062;-29
2022/05/11 11:59:41;;;;;;;16.65;3.42;;;;;;;18.20;88.29;101088.41;5058903;28;20049;-34
2022/05/11 12:02:18;;;;;;;14.13;3.08;;;;;;;18.23;89.22;101087.72;5061859;28;20048;-30
2022/05/11 12:04:55;;;;;;;16.25;2.97;;;;;;;18.15;90.50;101074.50;5058901;28;20498;-38
2022/05/11 12:15:59;;;;;;;13.40;2.88;;;;;;;17.66;90.19;101073.34;5063522;28;20037;-32